Time;durP1;ratioP1;P1;durP2;ratioP2;P2;SDS_P1;SDS_P2;PMS_P1;PMS_P2;Temp;Humidity;BMP_temperature;BMP_pressure;BME280_temperature;BME280_humidity;BME280_pressure;Samples;Min_cycle;Max_cycle;Signal;HPM_P1;HPM_P2
2022/05/31 00:03:09;;;;;;;;;;;;;;;10.53;100.00;100475.38;10372774;28;19930;-63
2022/05/31 00:08:14;;;;;;;;;;;;;;;10.55;100.00;100479.66;10372652;28;20005;-66
2022/05/31 00:13:17;;;;;;;;;;;;;;;10.47;100.00;100484.88;10372923;28;20247;-66
2022/05/31 00:18:20;;;;;;;;;;;;;;;10.40;100.00;100480.66;10372811;28;19937;-64
2022/05/31 00:23:25;;;;;;;;;;;;;;;10.42;100.00;100485.81;10372545;28;19936;-65
2022/05/31 00:28:28;;;;;;;;;;;;;;;10.31;100.00;100475.53;10372825;28;19932;-67
2022/05/31 00:33:31;;;;;;;;;;;;;;;10.24;100.00;100491.13;10372261;28;19926;-66
2022/05/31 00:38:35;;;;;;;;;;;;;;;10.00;100.00;100496.44;10371827;28;20020;-63
2022/05/31 00:43:38;;;;;;;;;;;;;;;9.84;100.00;100502.56;10372093;28;20402;-65
2022/05/31 00:48:48;;;;;;;;;;;;;;;9.88;100.00;100502.56;10371900;28;20032;-67
2022/05/31 00:53:55;;;;;;;;;;;;;;;9.92;100.00;100506.81;10371943;28;20417;-67
2022/05/31 00:59:07;;;;;;;;;;;;;;;9.81;100.00;100510.34;10371588;28;20351;-67
2022/05/31 01:04:11;;;;;;;;;;;;;;;9.88;100.00;100515.50;10372068;28;19940;-66
2022/05/31 01:09:15;;;;;;;;;;;;;;;9.60;100.00;100513.03;10371394;28;20342;-67
2022/05/31 01:14:19;;;;;;;;;;;;;;;9.62;100.00;100521.66;10371488;28;19937;-64
2022/05/31 01:24:51;;;;;;;;;;;;;;;9.57;100.00;100524.28;10378341;28;20281;-65
2022/05/31 01:29:55;;;;;;;;;;;;;;;9.50;100.00;100534.66;10378076;28;20012;-67
2022/05/31 01:34:59;;;;;;;;;;;;;;;9.43;100.00;100544.19;10377922;28;19990;-68
2022/05/31 01:40:07;;;;;;;;;;;;;;;9.35;100.00;100551.13;10377866;28;19925;-65
2022/05/31 01:45:12;;;;;;;;;;;;;;;9.30;100.00;100561.47;10378071;28;19925;-67
2022/05/31 01:50:16;;;;;;;;;;;;;;;9.30;100.00;100564.06;10377547;28;20017;-65
2022/05/31 01:55:21;;;;;;;;;;;;;;;9.18;100.00;100564.06;10377274;28;19925;-66
2022/05/31 02:00:24;;;;;;;;;;;;;;;9.22;100.00;100564.94;10376960;28;19980;-67
2022/05/31 02:05:27;;;;;;;;;;;;;;;9.26;100.00;100570.13;10376648;28;19926;-65
2022/05/31 02:10:33;;;;;;;;;;;;;;;9.24;100.00;100574.44;10376652;28;19929;-64
2022/05/31 02:15:36;;;;;;;;;;;;;;;9.31;100.00;100565.81;10376614;28;20350;-67
2022/05/31 02:20:39;;;;;;;;;;;;;;;9.32;100.00;100577.00;10376350;28;19926;-71
2022/05/31 02:25:43;;;;;;;;;;;;;;;9.11;100.00;100577.91;10376428;28;19925;-68
2022/05/31 02:30:47;;;;;;;;;;;;;;;9.14;100.00;100577.03;10376258;28;19926;-67
2022/05/31 02:35:50;;;;;;;;;;;;;;;9.08;100.00;100585.66;10375861;28;19925;-67
2022/05/31 02:40:54;;;;;;;;;;;;;;;9.05;100.00;100577.03;10375823;28;19925;-68
2022/05/31 02:45:59;;;;;;;;;;;;;;;8.99;100.00;100582.22;10375702;28;19936;-67
2022/05/31 02:51:02;;;;;;;;;;;;;;;8.95;100.00;100583.09;10375696;28;19936;-68
2022/05/31 02:56:09;;;;;;;;;;;;;;;8.93;100.00;100593.44;10375490;28;20023;-68
2022/05/31 03:01:20;;;;;;;;;;;;;;;8.88;100.00;100595.16;10374804;28;20281;-69
2022/05/31 03:06:23;;;;;;;;;;;;;;;8.85;100.00;100587.38;10375119;28;20257;-67
2022/05/31 03:11:31;;;;;;;;;;;;;;;8.88;100.00;100584.81;10374926;28;19958;-63
2022/05/31 03:16:35;;;;;;;;;;;;;;;8.86;100.00;100590.84;10374810;28;19926;-68
2022/05/31 03:21:40;;;;;;;;;;;;;;;8.95;100.00;100586.53;10374515;28;19925;-67
2022/05/31 03:26:46;;;;;;;;;;;;;;;8.91;100.00;100599.47;10374443;28;19925;-65
2022/05/31 03:31:49;;;;;;;;;;;;;;;8.77;100.00;100609.81;10374443;28;19936;-66
2022/05/31 03:36:52;;;;;;;;;;;;;;;8.78;100.00;100606.38;10373395;28;19926;-66
2022/05/31 03:41:56;;;;;;;;;;;;;;;8.83;100.00;100611.56;10373049;28;19925;-69
2022/05/31 03:47:01;;;;;;;;;;;;;;;8.88;100.00;100618.47;10373654;28;19932;-64
2022/05/31 03:52:05;;;;;;;;;;;;;;;8.97;100.00;100620.19;10373696;28;19925;-70
2022/05/31 03:57:14;;;;;;;;;;;;;;;8.97;100.00;100620.19;10373538;28;19926;-64
2022/05/31 04:02:17;;;;;;;;;;;;;;;8.97;100.00;100625.38;10373149;28;19932;-63
2022/05/31 04:07:20;;;;;;;;;;;;;;;9.07;100.00;100635.75;10373181;28;20361;-65
2022/05/31 04:12:25;;;;;;;;;;;;;;;9.08;100.00;100645.22;10373524;28;20020;-65
2022/05/31 04:17:28;;;;;;;;;;;;;;;9.19;100.00;100653.88;10372927;28;19978;-65
2022/05/31 04:22:32;;;;;;;;;;;;;;;9.27;100.00;100636.59;10372942;28;19955;-66
2022/05/31 04:27:36;;;;;;;;;;;;;;;9.31;100.00;100643.50;10372547;28;19936;-67
2022/05/31 04:32:39;;;;;;;;;;;;;;;9.43;100.00;100652.09;10372477;28;19925;-63
2022/05/31 04:37:42;;;;;;;;;;;;;;;9.63;100.00;100661.59;10372193;28;20008;-63
2022/05/31 04:42:47;;;;;;;;;;;;;;;9.68;100.00;100664.19;10372548;28;20352;-65
2022/05/31 04:47:50;;;;;;;;;;;;;;;9.85;100.00;100665.88;10371883;28;19935;-64
2022/05/31 04:52:53;;;;;;;;;;;;;;;10.02;100.00;100666.69;10371820;28;20391;-69
2022/05/31 04:57:58;;;;;;;;;;;;;;;10.17;100.00;100658.91;10371553;28;20331;-66
2022/05/31 05:03:01;;;;;;;;;;;;;;;10.28;100.00;100666.63;10371765;28;19926;-67
2022/05/31 05:08:04;;;;;;;;;;;;;;;10.43;100.00;100667.44;10371138;28;20266;-68
2022/05/31 05:13:09;;;;;;;;;;;;;;;10.68;100.00;100660.41;10370969;28;19934;-65
2022/05/31 05:18:12;;;;;;;;;;;;;;;10.91;100.00;100663.69;10370613;28;19925;-66
2022/05/31 05:23:15;;;;;;;;;;;;;;;11.18;100.00;100653.09;10371183;28;19929;-69
2022/05/31 05:33:40;;;;;;;;;;;;;;;11.38;100.00;100664.19;10370391;28;19925;-69
2022/05/31 05:38:44;;;;;;;;;;;;;;;11.51;100.00;100668.41;10370103;28;20226;-66
2022/05/31 05:43:48;;;;;;;;;;;;;;;11.65;100.00;100673.50;10370070;28;20216;-66
2022/05/31 05:48:52;;;;;;;;;;;;;;;11.81;100.00;100667.28;10370602;28;19932;-64
2022/05/31 05:53:55;;;;;;;;;;;;;;;11.88;100.00;100675.88;10367443;28;19929;-64
2022/05/31 05:59:00;;;;;;;;;;;;;;;11.97;100.00;100675.78;10369528;28;19951;-65
2022/05/31 06:04:07;;;;;;;;;;;;;;;12.17;100.00;100669.50;10372220;28;20425;-66
2022/05/31 06:09:12;;;;;;;;;;;;;;;12.34;100.00;100666.66;10376568;28;19936;-67
2022/05/31 06:14:19;;;;;;;;;;;;;;;12.48;99.22;100663.03;10376127;28;20269;-64
2022/05/31 06:19:25;;;;;;;;;;;;;;;12.62;97.00;100675.88;10371398;28;19926;-65
2022/05/31 06:24:29;;;;;;;;;;;;;;;12.77;95.75;100675.66;10375886;28;19936;-65
2022/05/31 06:29:33;;;;;;;;;;;;;;;12.92;96.08;100672.84;10375395;28;20409;-65
2022/05/31 06:34:39;;;;;;;;;;;;;;;13.06;93.98;100668.31;10375407;28;20012;-65
2022/05/31 06:39:44;;;;;;;;;;;;;;;13.08;90.60;100656.09;10375004;28;19926;-65
2022/05/31 06:44:48;;;;;;;;;;;;;;;13.16;88.02;100664.69;10375321;28;19925;-66
2022/05/31 06:49:51;;;;;;;;;;;;;;;13.34;87.55;100668.75;10374621;28;20373;-66
2022/05/31 07:00:19;;;;;;;;;;;;;;;13.64;84.15;100669.09;10374494;28;19936;-66
2022/05/31 07:05:22;;;;;;;;;;;;;;;13.81;82.35;100672.25;10374216;28;19926;-64
2022/05/31 07:10:26;;;;;;;;;;;;;;;13.93;82.20;100675.53;10373416;28;19929;-66
2022/05/31 07:15:31;;;;;;;;;;;;;;;14.02;82.40;100681.44;10373036;28;19925;-65
2022/05/31 07:20:55;;;;;;;;;;;;;;;14.12;82.37;100689.94;10373693;28;19926;-64
2022/05/31 07:25:59;;;;;;;;;;;;;;;14.24;81.25;100692.31;10374119;28;19926;-63
2022/05/31 07:31:26;;;;;;;;;;;;;;;14.29;79.93;100680.91;10356174;28;20350;-67
2022/05/31 07:36:30;;;;;;;;;;;;;;;14.46;78.97;100691.88;10373689;28;19925;-66
2022/05/31 07:41:34;;;;;;;;;;;;;;;14.62;79.44;100688.06;10373152;28;19925;-66
2022/05/31 07:46:39;;;;;;;;;;;;;;;14.86;78.37;100684.91;10373513;28;19986;-66
2022/05/31 07:51:42;;;;;;;;;;;;;;;14.92;76.65;100690.03;10373052;28;20008;-67
2022/05/31 07:56:45;;;;;;;;;;;;;;;14.98;75.67;100681.16;10373066;28;19936;-65
2022/05/31 08:01:49;;;;;;;;;;;;;;;15.16;76.09;100672.91;10371564;28;19926;-65
2022/05/31 08:06:53;;;;;;;;;;;;;;;15.27;73.43;100675.25;10372679;28;20257;-64
2022/05/31 08:11:56;;;;;;;;;;;;;;;15.39;74.29;100675.84;10372148;28;20366;-67
2022/05/31 08:17:03;;;;;;;;;;;;;;;15.52;75.06;100669.41;10372184;28;20220;-67
2022/05/31 08:22:06;;;;;;;;;;;;;;;15.49;72.48;100671.25;10371721;28;20393;-70
2022/05/31 08:27:09;;;;;;;;;;;;;;;15.54;72.17;100675.47;10371955;28;20021;-67
2022/05/31 08:32:14;;;;;;;;;;;;;;;15.67;71.07;100676.88;10371760;28;19925;-65
2022/05/31 08:37:18;;;;;;;;;;;;;;;15.84;70.79;100679.91;10371691;28;19935;-66
2022/05/31 08:42:22;;;;;;;;;;;;;;;15.81;68.93;100679.13;10371117;28;19925;-63
2022/05/31 08:47:36;;;;;;;;;;;;;;;15.85;66.12;100676.41;10371607;28;19936;-63
2022/05/31 08:52:56;;;;;;;;;;;;;;;15.96;66.67;100682.19;10371228;28;19926;-63
2022/05/31 08:58:01;;;;;;;;;;;;;;;16.14;66.51;100686.94;10371437;28;19925;-64
2022/05/31 09:03:09;;;;;;;;;;;;;;;16.37;67.01;100691.56;10370463;28;19936;-68
2022/05/31 09:08:17;;;;;;;;;;;;;;;16.51;64.51;100689.44;10371176;28;19926;-66
2022/05/31 09:13:25;;;;;;;;;;;;;;;16.80;64.89;100699.03;10370665;28;19935;-66
2022/05/31 09:18:38;;;;;;;;;;;;;;;16.85;62.76;100686.66;10370796;28;20020;-64
2022/05/31 09:23:41;;;;;;;;;;;;;;;17.10;62.65;100685.84;10370357;28;19925;-69
2022/05/31 09:28:48;;;;;;;;;;;;;;;17.15;61.44;100688.34;10370489;28;19925;-68
2022/05/31 09:33:59;;;;;;;;;;;;;;;17.20;61.54;100678.56;10370343;28;19925;-66
2022/05/31 09:39:12;;;;;;;;;;;;;;;17.30;60.37;100677.34;10373385;28;19925;-66
2022/05/31 09:44:19;;;;;;;;;;;;;;;17.86;59.16;100678.97;10376696;28;19925;-65
2022/05/31 09:49:26;;;;;;;;;;;;;;;17.70;58.95;100693.53;10377193;28;19931;-64
2022/05/31 09:59:51;;;;;;;;;;;;;;;18.26;54.96;100695.03;10376387;28;19932;-64
2022/05/31 10:05:09;;;;;;;;;;;;;;;19.14;54.35;100686.44;10376222;28;19951;-65
2022/05/31 10:10:15;;;;;;;;;;;;;;;19.39;52.75;100681.94;10376671;28;20334;-65
2022/05/31 10:15:38;;;;;;;;;;;;;;;19.84;51.37;100682.66;10376098;28;19930;-65
2022/05/31 10:20:57;;;;;;;;;;;;;;;19.57;52.80;100678.53;10376406;28;19926;-66
2022/05/31 10:26:01;;;;;;;;;;;;;;;19.84;51.18;100684.44;10375858;28;19926;-67
2022/05/31 10:31:07;;;;;;;;;;;;;;;20.50;49.36;100674.41;10375730;28;19940;-65
2022/05/31 10:36:16;;;;;;;;;;;;;;;20.93;48.79;100683.88;10375470;28;19937;-67
2022/05/31 10:41:22;;;;;;;;;;;;;;;21.27;48.74;100665.50;10375272;28;19978;-67
2022/05/31 10:46:49;;;;;;;;;;;;;;;20.87;47.72;100680.63;10375494;28;20304;-70
2022/05/31 10:52:00;;;;;;;;;;;;;;;20.86;47.64;100674.53;10374650;28;20351;-68
2022/05/31 10:57:08;;;;;;;;;;;;;;;21.68;47.11;100671.34;10375491;28;19933;-66
2022/05/31 11:02:35;;;;;;;;;;;;;;;21.39;49.53;100680.75;10374924;28;20344;-68
2022/05/31 11:11:28;;;;;;;;;;;;;;;20.91;47.88;100674.28;10388773;28;19926;-67
2022/05/31 11:13:16;;;;;;;;;;;;;;;20.83;48.09;100676.44;10374204;28;19929;-66
2022/05/31 11:18:32;;;;;;;;;;;;;;;20.48;48.19;100676.25;10374459;28;19940;-65
2022/05/31 11:23:45;;;;;;;;;;;;;;;21.07;47.54;100656.84;10373711;28;19944;-65
2022/05/31 11:28:56;;;;;;;;;;;;;;;22.30;44.23;100663.69;10374184;28;19943;-63
2022/05/31 11:34:10;;;;;;;;;;;;;;;22.55;43.82;100666.78;10373706;28;19930;-70
2022/05/31 11:39:22;;;;;;;;;;;;;;;22.19;45.47;100659.91;10373638;28;19936;-65
2022/05/31 11:44:35;;;;;;;;;;;;;;;22.04;48.50;100658.09;10374234;28;19932;-64
2022/05/31 11:49:45;;;;;;;;;;;;;;;22.58;47.99;100656.03;10373735;28;19926;-66
2022/05/31 12:00:31;;;;;;;;;;;;;;;23.61;43.99;100645.69;10371928;28;19926;-65
2022/05/31 12:05:37;;;;;;;;;;;;;;;22.04;44.80;100652.81;10372463;28;19932;-64
2022/05/31 12:10:42;;;;;;;;;;;;;;;23.05;45.46;100637.50;10372937;28;20269;-66
2022/05/31 12:15:47;;;;;;;;;;;;;;;24.48;44.67;100639.47;10372190;28;19926;-64
2022/05/31 12:20:55;;;;;;;;;;;;;;;24.64;38.90;100640.16;10372194;28;19994;-64
2022/05/31 12:26:01;;;;;;;;;;;;;;;25.07;40.83;100628.53;10371853;28;20350;-66
2022/05/31 12:31:08;;;;;;;;;;;;;;;25.30;39.32;100623.53;10371925;28;19926;-65
2022/05/31 12:36:12;;;;;;;;;;;;;;;23.66;40.16;100617.09;10372139;28;20257;-65
2022/05/31 12:41:31;;;;;;;;;;;;;;;22.62;42.99;100617.00;10372931;28;19932;-65
2022/05/31 12:46:36;;;;;;;;;;;;;;;23.07;45.15;100614.44;10371491;28;19926;-69
2022/05/31 12:51:39;;;;;;;;;;;;;;;22.77;40.85;100606.44;10372581;28;19926;-67
2022/05/31 12:56:57;;;;;;;;;;;;;;;23.87;41.03;100607.84;10371176;28;19925;-67
2022/05/31 13:02:31;;;;;;;;;;;;;;;23.77;41.48;100600.56;10366373;28;19926;-67
2022/05/31 13:07:41;;;;;;;;;;;;;;;24.11;41.18;100602.03;10370663;28;19926;-70
2022/05/31 13:23:30;;;;;;;;;;;;;;;22.34;41.47;100598.25;10378138;28;19936;-64
2022/05/31 13:28:36;;;;;;;;;;;;;;;22.11;40.96;100603.91;10377299;28;19926;-69
2022/05/31 13:33:39;;;;;;;;;;;;;;;23.30;40.74;100594.56;10377350;28;19981;-63
2022/05/31 13:38:44;;;;;;;;;;;;;;;21.93;40.49;100595.19;10377202;28;19925;-67
2022/05/31 13:43:51;;;;;;;;;;;;;;;23.19;39.96;100596.97;10377022;28;19930;-64
2022/05/31 13:48:58;;;;;;;;;;;;;;;23.89;40.52;100589.19;10377286;28;19981;-68
2022/05/31 13:54:05;;;;;;;;;;;;;;;24.43;40.08;100585.81;10376943;28;19926;-65
2022/05/31 13:59:10;;;;;;;;;;;;;;;23.97;39.56;100589.56;10375729;28;19926;-70
2022/05/31 14:04:15;;;;;;;;;;;;;;;23.24;40.43;100581.66;10558246;28;19924;-68
2022/05/31 14:09:22;;;;;;;;;;;;;;;24.09;39.40;100578.25;10390165;28;19974;-65
2022/05/31 14:14:29;;;;;;;;;;;;;;;24.20;38.06;100572.28;10376100;28;19932;-65
2022/05/31 14:19:33;;;;;;;;;;;;;;;23.82;40.08;100567.53;10376083;28;20015;-67
2022/05/31 14:24:36;;;;;;;;;;;;;;;24.15;39.91;100555.78;10375632;28;19926;-68
2022/05/31 14:29:41;;;;;;;;;;;;;;;24.19;37.69;100560.81;10375931;28;19926;-66
2022/05/31 14:34:46;;;;;;;;;;;;;;;24.08;39.56;100557.97;10376411;28;20008;-65
2022/05/31 14:39:50;;;;;;;;;;;;;;;23.23;41.12;100556.13;10375298;28;19926;-67
2022/05/31 14:44:55;;;;;;;;;;;;;;;22.84;40.40;100557.50;10375035;28;20357;-68
2022/05/31 14:50:07;;;;;;;;;;;;;;;22.77;38.74;100556.13;10373654;28;19926;-67
2022/05/31 14:55:12;;;;;;;;;;;;;;;21.95;38.90;100555.47;10375018;28;20337;-66
2022/05/31 15:00:22;;;;;;;;;;;;;;;21.98;40.03;100544.72;10374765;28;19932;-68
2022/05/31 15:05:27;;;;;;;;;;;;;;;22.35;38.64;100536.47;10374174;28;19925;-71
2022/05/31 15:10:31;;;;;;;;;;;;;;;22.52;37.79;100537.22;10374427;28;19932;-67
2022/05/31 15:20:56;;;;;;;;;;;;;;;21.33;39.87;100546.34;10374787;28;19926;-66
2022/05/31 15:26:01;;;;;;;;;;;;;;;21.08;43.30;100537.09;10374189;28;19926;-63
2022/05/31 15:31:06;;;;;;;;;;;;;;;20.83;42.57;100542.69;10374878;28;20046;-67
2022/05/31 15:36:31;;;;;;;;;;;;;;;20.97;43.19;100544.69;10373235;28;20016;-69
2022/05/31 15:41:38;;;;;;;;;;;;;;;21.45;43.86;100532.50;10373682;28;19925;-64
2022/05/31 15:46:42;;;;;;;;;;;;;;;21.77;44.05;100528.19;10373468;28;19925;-68
2022/05/31 15:51:47;;;;;;;;;;;;;;;21.85;43.19;100523.38;10373341;28;19936;-64
2022/05/31 15:56:51;;;;;;;;;;;;;;;21.83;43.86;100527.03;10373423;28;19926;-72
2022/05/31 16:01:56;;;;;;;;;;;;;;;21.89;45.42;100522.28;10372629;28;20383;-66
2022/05/31 16:07:00;;;;;;;;;;;;;;;21.62;44.64;100526.38;10372717;28;19925;-65
2022/05/31 16:12:04;;;;;;;;;;;;;;;21.20;45.69;100532.06;10372651;28;19932;-66
2022/05/31 16:17:09;;;;;;;;;;;;;;;20.90;49.58;100543.28;10372651;28;19925;-65
2022/05/31 16:22:14;;;;;;;;;;;;;;;20.84;49.23;100538.28;10372885;28;19989;-66
2022/05/31 16:27:20;;;;;;;;;;;;;;;20.97;48.68;100539.41;10372356;28;19925;-66
2022/05/31 16:32:24;;;;;;;;;;;;;;;21.03;44.54;100536.47;10372280;28;19925;-64
2022/05/31 16:42:50;;;;;;;;;;;;;;;20.59;50.93;100542.13;10371761;28;20013;-67
2022/05/31 16:47:54;;;;;;;;;;;;;;;20.45;51.88;100539.28;10371416;28;20346;-68
2022/05/31 16:53:00;;;;;;;;;;;;;;;20.52;50.88;100542.47;10371353;28;19926;-67
2022/05/31 16:58:04;;;;;;;;;;;;;;;20.53;50.91;100528.38;10371533;28;19925;-64
2022/05/31 17:03:08;;;;;;;;;;;;;;;20.55;51.07;100526.53;10371100;28;19925;-66
2022/05/31 17:18:55;;;;;;;;;;;;;;;19.95;53.02;100514.38;10370773;28;19940;-65
2022/05/31 17:23:58;;;;;;;;;;;;;;;19.81;54.29;100518.59;10372211;28;19925;-65
2022/05/31 17:29:04;;;;;;;;;;;;;;;19.60;54.78;100515.16;10370862;28;20423;-64
2022/05/31 17:34:08;;;;;;;;;;;;;;;19.41;56.50;100515.06;10370693;28;19926;-69
2022/05/31 17:39:13;;;;;;;;;;;;;;;19.33;56.12;100513.69;10370839;28;19979;-68
2022/05/31 17:44:17;;;;;;;;;;;;;;;19.23;56.41;100515.00;10370403;28;19930;-65
2022/05/31 17:49:22;;;;;;;;;;;;;;;19.12;56.99;100518.06;10370361;28;19936;-68
2022/05/31 17:54:27;;;;;;;;;;;;;;;18.99;57.23;100516.91;10370314;28;20070;-65
2022/05/31 17:59:30;;;;;;;;;;;;;;;18.83;58.77;100510.56;10371963;28;19972;-67
2022/05/31 18:04:34;;;;;;;;;;;;;;;18.69;59.00;100515.50;10376266;28;19929;-67
2022/05/31 18:09:39;;;;;;;;;;;;;;;18.64;59.68;100519.28;10375940;28;19925;-67
2022/05/31 18:14:42;;;;;;;;;;;;;;;18.47;58.87;100519.06;10375952;28;19936;-66
2022/05/31 18:19:47;;;;;;;;;;;;;;;18.37;59.54;100521.19;10376451;28;19935;-67
2022/05/31 18:24:56;;;;;;;;;;;;;;;18.24;60.90;100522.59;10376011;28;19926;-67
2022/05/31 18:29:59;;;;;;;;;;;;;;;18.15;60.24;100515.88;10375830;28;20022;-66
2022/05/31 18:35:08;;;;;;;;;;;;;;;17.99;61.67;100520.03;10375694;28;20266;-67
2022/05/31 18:40:34;;;;;;;;;;;;;;;17.78;62.95;100514.72;10375412;28;19926;-66
2022/05/31 18:45:38;;;;;;;;;;;;;;;17.76;63.25;100517.41;10375593;28;19959;-65
2022/05/31 18:50:43;;;;;;;;;;;;;;;17.67;63.98;100519.50;10375048;28;20232;-68
2022/05/31 18:55:46;;;;;;;;;;;;;;;17.51;66.14;100539.34;10375262;28;19978;-66
2022/05/31 19:00:49;;;;;;;;;;;;;;;17.36;66.80;100540.69;10375059;28;19926;-70
2022/05/31 19:05:55;;;;;;;;;;;;;;;17.32;65.85;100542.56;10375137;28;19936;-69
2022/05/31 19:10:58;;;;;;;;;;;;;;;17.22;66.91;100553.44;10375333;28;19926;-71
2022/05/31 19:16:03;;;;;;;;;;;;;;;17.07;68.50;100557.44;10375152;28;19937;-68
2022/05/31 19:21:10;;;;;;;;;;;;;;;16.91;68.82;100550.13;10375116;28;19925;-69
2022/05/31 19:26:14;;;;;;;;;;;;;;;16.84;68.96;100548.63;10374879;28;19930;-69
2022/05/31 19:31:18;;;;;;;;;;;;;;;16.76;69.10;100546.22;10374478;28;19925;-69
2022/05/31 19:36:24;;;;;;;;;;;;;;;16.61;70.14;100538.88;10374097;28;20311;-65
2022/05/31 19:41:30;;;;;;;;;;;;;;;16.35;74.21;100532.69;10373968;28;19925;-68
2022/05/31 19:46:33;;;;;;;;;;;;;;;16.25;73.09;100533.88;10373694;28;19926;-64
2022/05/31 19:51:38;;;;;;;;;;;;;;;16.13;74.18;100524.63;10373743;28;19925;-62
2022/05/31 19:56:41;;;;;;;;;;;;;;;16.15;73.77;100517.59;10373642;28;19936;-65
2022/05/31 20:01:45;;;;;;;;;;;;;;;16.07;74.54;100523.03;10373629;28;19925;-64
2022/05/31 20:06:50;;;;;;;;;;;;;;;16.05;75.89;100521.38;10373257;28;19978;-64
2022/05/31 20:11:54;;;;;;;;;;;;;;;15.93;76.38;100516.50;10372679;28;20404;-64
2022/05/31 20:16:57;;;;;;;;;;;;;;;15.89;77.47;100526.19;10372823;28;19935;-67
2022/05/31 20:22:02;;;;;;;;;;;;;;;15.88;77.24;100524.50;10372350;28;19925;-64
2022/05/31 20:27:06;;;;;;;;;;;;;;;15.85;76.33;100523.72;10372395;28;20471;-66
2022/05/31 20:32:09;;;;;;;;;;;;;;;15.81;77.33;100512.47;10372591;28;19936;-63
2022/05/31 20:37:14;;;;;;;;;;;;;;;15.85;76.88;100506.25;10372377;28;19964;-64
2022/05/31 20:42:24;;;;;;;;;;;;;;;15.84;77.43;100511.53;10372361;28;19940;-63
2022/05/31 20:47:28;;;;;;;;;;;;;;;15.85;77.08;100508.88;10371962;28;19926;-63
2022/05/31 20:52:34;;;;;;;;;;;;;;;15.99;75.95;100505.84;10372006;28;19952;-70
2022/05/31 20:57:37;;;;;;;;;;;;;;;16.09;74.46;100500.28;10372000;28;19936;-71
2022/05/31 21:02:42;;;;;;;;;;;;;;;16.09;74.68;100489.81;10371886;28;19936;-67
2022/05/31 21:07:49;;;;;;;;;;;;;;;16.13;75.24;100490.59;10371496;28;19925;-68
2022/05/31 21:12:52;;;;;;;;;;;;;;;16.05;75.18;100508.28;10370772;28;19925;-67
2022/05/31 21:17:56;;;;;;;;;;;;;;;16.07;77.39;100519.56;10371547;28;20390;-70
2022/05/31 21:23:01;;;;;;;;;;;;;;;16.06;76.59;100517.84;10371403;28;19925;-68
2022/05/31 21:28:09;;;;;;;;;;;;;;;16.07;77.08;100515.19;10371067;28;19929;-67
2022/05/31 21:33:13;;;;;;;;;;;;;;;16.07;76.61;100506.47;10371329;28;19925;-69
2022/05/31 21:38:17;;;;;;;;;;;;;;;16.02;77.20;100517.09;10377893;28;19940;-68
2022/05/31 21:43:20;;;;;;;;;;;;;;;16.07;75.37;100514.31;10377564;28;19929;-69
2022/05/31 21:48:23;;;;;;;;;;;;;;;16.03;75.58;100503.09;10377759;28;19945;-67
2022/05/31 21:53:31;;;;;;;;;;;;;;;16.01;78.66;100497.03;10377038;28;20270;-65
2022/05/31 21:58:34;;;;;;;;;;;;;;;15.98;78.55;100502.38;10376991;28;19970;-67
2022/05/31 22:03:38;;;;;;;;;;;;;;;15.96;78.13;100496.31;10376840;28;19947;-72
2022/05/31 22:08:42;;;;;;;;;;;;;;;15.92;80.34;100479.00;10376310;28;20358;-67
2022/05/31 22:13:46;;;;;;;;;;;;;;;15.93;77.16;100465.00;10375867;28;20030;-68
2022/05/31 22:18:49;;;;;;;;;;;;;;;15.86;78.81;100453.00;10376531;28;20345;-68
2022/05/31 22:23:54;;;;;;;;;;;;;;;15.92;76.75;100455.44;10376622;28;19961;-69
2022/05/31 22:28:57;;;;;;;;;;;;;;;15.97;75.90;100453.53;10375950;28;20351;-66
2022/05/31 22:34:00;;;;;;;;;;;;;;;15.96;76.44;100443.94;10376341;28;19925;-69
2022/05/31 22:39:05;;;;;;;;;;;;;;;15.93;76.60;100425.72;10375682;28;19926;-67
2022/05/31 22:44:10;;;;;;;;;;;;;;;15.94;77.21;100431.84;10374863;28;19925;-64
2022/05/31 22:49:13;;;;;;;;;;;;;;;15.99;78.11;100430.78;10373573;28;20244;-68
2022/05/31 22:54:18;;;;;;;;;;;;;;;15.97;79.36;100424.75;10373706;28;20028;-67
2022/05/31 22:59:24;;;;;;;;;;;;;;;15.96;80.86;100423.00;10374025;28;19925;-67
2022/05/31 23:04:31;;;;;;;;;;;;;;;15.98;79.74;100397.66;10374986;28;19936;-66
2022/05/31 23:09:38;;;;;;;;;;;;;;;16.00;77.45;100413.28;10374766;28;19937;-65
2022/05/31 23:14:41;;;;;;;;;;;;;;;16.00;78.27;100434.25;10374589;28;20345;-65
2022/05/31 23:19:45;;;;;;;;;;;;;;;16.06;78.62;100439.31;10374405;28;19925;-67
2022/05/31 23:24:50;;;;;;;;;;;;;;;15.99;79.86;100430.78;10374513;28;19925;-68
2022/05/31 23:29:55;;;;;;;;;;;;;;;15.97;80.59;100429.97;10374297;28;20357;-68
2022/05/31 23:35:02;;;;;;;;;;;;;;;15.92;81.64;100426.66;10374518;28;19926;-67
2022/05/31 23:40:07;;;;;;;;;;;;;;;15.94;82.63;100434.44;10373931;28;19926;-67
2022/05/31 23:45:11;;;;;;;;;;;;;;;15.87;83.47;100453.84;10373927;28;20079;-66
2022/05/31 23:50:14;;;;;;;;;;;;;;;15.80;83.04;100471.50;10374103;28;20335;-66
2022/05/31 23:55:19;;;;;;;;;;;;;;;15.79;83.83;100458.47;10373300;28;19929;-68
